sensor_id;sensor_type;location;lat;lon;timestamp;pressure;altitude;pressure_sealevel;temperature;humidity
10668;BME280;5382;42.136;24.796;2022-12-07T00:00:13;100129.91;;;7.19;100.00
10668;BME280;5382;42.136;24.796;2022-12-07T00:02:40;100048.91;;;6.77;100.00
10668;BME280;5382;42.136;24.796;2022-12-07T00:05:07;100133.91;;;7.27;100.00
10668;BME280;5382;42.136;24.796;2022-12-07T00:07:35;100125.59;;;7.18;100.00
10668;BME280;5382;42.136;24.796;2022-12-07T00:10:03;100127.91;;;7.07;100.00
10668;BME280;5382;42.136;24.796;2022-12-07T00:12:29;100130.56;;;7.07;100.00
10668;BME280;5382;42.136;24.796;2022-12-07T00:14:56;100132.44;;;7.05;100.00
10668;BME280;5382;42.136;24.796;2022-12-07T00:17:23;100121.38;;;6.98;100.00
10668;BME280;5382;42.136;24.796;2022-12-07T00:19:50;100122.56;;;6.93;100.00
10668;BME280;5382;42.136;24.796;2022-12-07T00:22:17;100127.81;;;6.93;100.00
10668;BME280;5382;42.136;24.796;2022-12-07T00:24:45;100127.47;;;6.99;100.00
10668;BME280;5382;42.136;24.796;2022-12-07T00:27:12;100126.22;;;6.90;100.00
10668;BME280;5382;42.136;24.796;2022-12-07T00:29:38;100130.63;;;6.90;100.00
10668;BME280;5382;42.136;24.796;2022-12-07T00:32:05;100125.53;;;6.87;100.00
10668;BME280;5382;42.136;24.796;2022-12-07T00:34:32;100132.03;;;6.80;100.00
10668;BME280;5382;42.136;24.796;2022-12-07T00:36:59;100122.44;;;6.78;100.00
10668;BME280;5382;42.136;24.796;2022-12-07T00:39:26;100133.97;;;6.76;100.00
10668;BME280;5382;42.136;24.796;2022-12-07T00:41:54;100127.97;;;6.74;100.00
10668;BME280;5382;42.136;24.796;2022-12-07T00:44:20;100124.94;;;6.82;100.00
10668;BME280;5382;42.136;24.796;2022-12-07T00:46:47;100125.75;;;6.82;100.00
10668;BME280;5382;42.136;24.796;2022-12-07T00:49:14;100130.09;;;6.83;100.00
10668;BME280;5382;42.136;24.796;2022-12-07T00:51:41;100124.56;;;6.72;100.00
10668;BME280;5382;42.136;24.796;2022-12-07T00:54:08;100117.09;;;6.80;100.00
10668;BME280;5382;42.136;24.796;2022-12-07T00:56:34;100124.75;;;6.85;100.00
10668;BME280;5382;42.136;24.796;2022-12-07T00:59:03;100125.66;;;6.84;100.00
10668;BME280;5382;42.136;24.796;2022-12-07T01:01:32;100129.03;;;6.70;100.00
10668;BME280;5382;42.136;24.796;2022-12-07T01:03:59;100126.16;;;6.74;100.00
10668;BME280;5382;42.136;24.796;2022-12-07T01:06:27;100115.94;;;6.68;100.00
10668;BME280;5382;42.136;24.796;2022-12-07T01:08:54;100121.31;;;6.67;100.00
10668;BME280;5382;42.136;24.796;2022-12-07T01:11:23;100120.75;;;6.77;100.00
10668;BME280;5382;42.136;24.796;2022-12-07T01:13:51;100126.84;;;6.78;100.00
10668;BME280;5382;42.136;24.796;2022-12-07T01:16:21;100119.97;;;6.75;100.00
10668;BME280;5382;42.136;24.796;2022-12-07T01:18:50;100110.47;;;6.73;100.00
10668;BME280;5382;42.136;24.796;2022-12-07T01:21:18;100107.81;;;6.73;100.00
10668;BME280;5382;42.136;24.796;2022-12-07T01:23:47;100082.88;;;6.64;100.00
10668;BME280;5382;42.136;24.796;2022-12-07T01:26:16;100107.75;;;6.74;100.00
10668;BME280;5382;42.136;24.796;2022-12-07T01:28:44;100108.53;;;6.76;100.00
10668;BME280;5382;42.136;24.796;2022-12-07T01:31:13;100105.50;;;6.84;100.00
10668;BME280;5382;42.136;24.796;2022-12-07T01:33:43;100105.41;;;6.86;100.00
10668;BME280;5382;42.136;24.796;2022-12-07T01:36:14;100108.44;;;6.78;100.00
10668;BME280;5382;42.136;24.796;2022-12-07T01:38:41;100098.25;;;6.72;100.00
10668;BME280;5382;42.136;24.796;2022-12-07T01:41:09;100099.34;;;6.68;100.00
10668;BME280;5382;42.136;24.796;2022-12-07T01:43:36;100093.91;;;6.71;100.00
10668;BME280;5382;42.136;24.796;2022-12-07T01:46:03;100079.72;;;6.58;100.00
10668;BME280;5382;42.136;24.796;2022-12-07T01:48:32;100086.88;;;6.71;100.00
10668;BME280;5382;42.136;24.796;2022-12-07T01:51:04;100078.47;;;6.65;100.00
10668;BME280;5382;42.136;24.796;2022-12-07T01:53:34;100081.94;;;6.65;100.00
10668;BME280;5382;42.136;24.796;2022-12-07T01:56:02;100077.25;;;6.54;100.00
10668;BME280;5382;42.136;24.796;2022-12-07T01:58:29;100078.03;;;6.57;100.00
10668;BME280;5382;42.136;24.796;2022-12-07T02:00:56;100093.25;;;6.50;100.00
10668;BME280;5382;42.136;24.796;2022-12-07T02:03:27;100098.28;;;6.37;100.00
10668;BME280;5382;42.136;24.796;2022-12-07T02:05:57;100080.53;;;6.25;100.00
10668;BME280;5382;42.136;24.796;2022-12-07T02:08:26;100083.41;;;6.38;100.00
10668;BME280;5382;42.136;24.796;2022-12-07T02:10:53;100086.16;;;6.34;100.00
10668;BME280;5382;42.136;24.796;2022-12-07T02:13:23;100090.19;;;6.42;100.00
10668;BME280;5382;42.136;24.796;2022-12-07T02:16:06;100076.41;;;6.37;100.00
10668;BME280;5382;42.136;24.796;2022-12-07T02:18:44;100076.81;;;6.29;100.00
10668;BME280;5382;42.136;24.796;2022-12-07T02:21:19;100069.31;;;6.21;100.00
10668;BME280;5382;42.136;24.796;2022-12-07T02:24:09;100079.22;;;6.16;100.00
10668;BME280;5382;42.136;24.796;2022-12-07T02:29:47;100071.66;;;6.10;100.00
10668;BME280;5382;42.136;24.796;2022-12-07T02:32:21;100054.66;;;6.17;100.00
10668;BME280;5382;42.136;24.796;2022-12-07T02:34:55;100046.00;;;6.15;100.00
10668;BME280;5382;42.136;24.796;2022-12-07T02:37:34;100051.03;;;6.20;100.00
10668;BME280;5382;42.136;24.796;2022-12-07T02:40:07;100050.88;;;6.05;100.00
10668;BME280;5382;42.136;24.796;2022-12-07T02:42:38;100048.91;;;6.09;100.00
10668;BME280;5382;42.136;24.796;2022-12-07T02:45:10;100056.13;;;6.05;100.00
10668;BME280;5382;42.136;24.796;2022-12-07T02:47:39;100054.91;;;6.13;100.00
10668;BME280;5382;42.136;24.796;2022-12-07T02:50:07;100059.13;;;6.15;100.00
10668;BME280;5382;42.136;24.796;2022-12-07T02:52:35;100049.94;;;6.24;100.00
10668;BME280;5382;42.136;24.796;2022-12-07T02:55:02;100038.69;;;6.04;100.00
10668;BME280;5382;42.136;24.796;2022-12-07T02:57:49;100049.16;;;6.22;100.00
10668;BME280;5382;42.136;24.796;2022-12-07T03:00:22;100041.13;;;6.25;100.00
10668;BME280;5382;42.136;24.796;2022-12-07T03:02:53;100027.06;;;6.26;100.00
10668;BME280;5382;42.136;24.796;2022-12-07T03:05:31;100035.56;;;6.14;100.00
10668;BME280;5382;42.136;24.796;2022-12-07T03:08:06;100034.94;;;6.08;100.00
10668;BME280;5382;42.136;24.796;2022-12-07T03:10:44;100025.00;;;6.15;100.00
10668;BME280;5382;42.136;24.796;2022-12-07T03:13:21;100028.84;;;6.25;100.00
10668;BME280;5382;42.136;24.796;2022-12-07T03:15:55;100033.16;;;6.26;100.00
10668;BME280;5382;42.136;24.796;2022-12-07T03:18:26;100033.25;;;6.25;100.00
10668;BME280;5382;42.136;24.796;2022-12-07T03:20:58;100042.63;;;6.46;100.00
10668;BME280;5382;42.136;24.796;2022-12-07T03:23:27;100049.81;;;6.43;100.00
10668;BME280;5382;42.136;24.796;2022-12-07T03:25:56;100056.41;;;6.34;100.00
10668;BME280;5382;42.136;24.796;2022-12-07T03:28:27;100048.75;;;6.29;100.00
10668;BME280;5382;42.136;24.796;2022-12-07T03:31:01;100040.34;;;6.23;100.00
10668;BME280;5382;42.136;24.796;2022-12-07T03:33:34;100049.47;;;6.33;100.00
10668;BME280;5382;42.136;24.796;2022-12-07T03:36:08;100047.13;;;6.27;100.00
10668;BME280;5382;42.136;24.796;2022-12-07T03:38:37;100051.53;;;6.26;100.00
10668;BME280;5382;42.136;24.796;2022-12-07T03:41:10;100051.31;;;6.31;100.00
10668;BME280;5382;42.136;24.796;2022-12-07T03:43:39;100054.56;;;6.36;100.00
10668;BME280;5382;42.136;24.796;2022-12-07T03:46:15;100046.91;;;6.31;100.00
10668;BME280;5382;42.136;24.796;2022-12-07T03:48:52;100052.16;;;6.31;100.00
10668;BME280;5382;42.136;24.796;2022-12-07T03:51:24;100041.59;;;6.33;100.00
10668;BME280;5382;42.136;24.796;2022-12-07T03:53:56;100043.38;;;6.32;100.00
10668;BME280;5382;42.136;24.796;2022-12-07T03:56:24;100040.34;;;6.40;100.00
10668;BME280;5382;42.136;24.796;2022-12-07T03:58:53;100045.09;;;6.49;100.00
10668;BME280;5382;42.136;24.796;2022-12-07T04:01:22;100037.97;;;6.51;100.00
10668;BME280;5382;42.136;24.796;2022-12-07T04:03:49;100030.94;;;6.52;100.00
10668;BME280;5382;42.136;24.796;2022-12-07T04:06:16;100039.88;;;6.65;100.00
10668;BME280;5382;42.136;24.796;2022-12-07T04:08:43;100040.03;;;6.62;100.00
10668;BME280;5382;42.136;24.796;2022-12-07T04:11:10;100036.41;;;6.65;100.00
10668;BME280;5382;42.136;24.796;2022-12-07T04:13:36;100029.53;;;6.62;100.00
10668;BME280;5382;42.136;24.796;2022-12-07T04:16:17;100011.81;;;6.32;100.00
10668;BME280;5382;42.136;24.796;2022-12-07T04:18:45;100031.19;;;6.47;100.00
10668;BME280;5382;42.136;24.796;2022-12-07T04:21:12;100033.09;;;6.28;100.00
10668;BME280;5382;42.136;24.796;2022-12-07T04:23:39;100036.13;;;6.20;100.00
10668;BME280;5382;42.136;24.796;2022-12-07T04:26:06;100022.53;;;6.12;100.00
10668;BME280;5382;42.136;24.796;2022-12-07T04:28:34;100020.03;;;6.09;100.00
10668;BME280;5382;42.136;24.796;2022-12-07T04:31:01;100012.75;;;6.14;100.00
10668;BME280;5382;42.136;24.796;2022-12-07T04:33:27;100028.13;;;6.22;100.00
10668;BME280;5382;42.136;24.796;2022-12-07T04:35:56;100022.81;;;6.23;100.00
10668;BME280;5382;42.136;24.796;2022-12-07T04:38:22;100018.22;;;6.27;100.00
10668;BME280;5382;42.136;24.796;2022-12-07T04:40:49;100021.41;;;6.16;100.00
10668;BME280;5382;42.136;24.796;2022-12-07T04:43:16;100020.50;;;6.17;100.00
10668;BME280;5382;42.136;24.796;2022-12-07T04:45:46;100024.81;;;6.18;100.00
10668;BME280;5382;42.136;24.796;2022-12-07T04:48:12;100019.72;;;6.15;100.00
10668;BME280;5382;42.136;24.796;2022-12-07T04:50:39;100025.44;;;6.06;100.00
10668;BME280;5382;42.136;24.796;2022-12-07T04:53:07;100024.59;;;6.05;100.00
10668;BME280;5382;42.136;24.796;2022-12-07T04:55:34;100012.47;;;6.03;100.00
10668;BME280;5382;42.136;24.796;2022-12-07T04:58:01;100022.19;;;6.01;100.00
10668;BME280;5382;42.136;24.796;2022-12-07T05:00:28;99989.91;;;5.64;100.00
10668;BME280;5382;42.136;24.796;2022-12-07T05:02:54;100028.75;;;5.92;100.00
10668;BME280;5382;42.136;24.796;2022-12-07T05:05:22;100029.75;;;5.89;100.00
10668;BME280;5382;42.136;24.796;2022-12-07T05:07:49;100028.53;;;5.79;100.00
10668;BME280;5382;42.136;24.796;2022-12-07T05:10:18;100009.53;;;5.74;100.00
10668;BME280;5382;42.136;24.796;2022-12-07T05:12:44;100030.81;;;5.85;100.00
10668;BME280;5382;42.136;24.796;2022-12-07T05:15:12;100027.97;;;5.90;100.00
10668;BME280;5382;42.136;24.796;2022-12-07T05:17:39;100033.94;;;5.94;100.00
10668;BME280;5382;42.136;24.796;2022-12-07T05:20:06;100028.91;;;5.89;100.00
10668;BME280;5382;42.136;24.796;2022-12-07T05:22:33;100034.44;;;5.83;100.00
10668;BME280;5382;42.136;24.796;2022-12-07T05:25:00;100030.59;;;5.73;100.00
10668;BME280;5382;42.136;24.796;2022-12-07T05:27:28;100036.53;;;5.59;100.00
10668;BME280;5382;42.136;24.796;2022-12-07T05:29:55;100035.97;;;5.52;100.00
10668;BME280;5382;42.136;24.796;2022-12-07T05:32:22;100031.72;;;5.50;100.00
10668;BME280;5382;42.136;24.796;2022-12-07T05:34:49;100039.59;;;5.50;100.00
10668;BME280;5382;42.136;24.796;2022-12-07T05:37:16;100040.09;;;5.58;100.00
10668;BME280;5382;42.136;24.796;2022-12-07T05:39:42;100046.97;;;5.60;100.00
10668;BME280;5382;42.136;24.796;2022-12-07T05:42:10;100018.84;;;5.45;100.00
10668;BME280;5382;42.136;24.796;2022-12-07T05:44:43;100040.72;;;5.63;100.00
10668;BME280;5382;42.136;24.796;2022-12-07T05:47:11;100054.22;;;5.73;100.00
10668;BME280;5382;42.136;24.796;2022-12-07T05:49:38;100038.34;;;5.76;100.00
10668;BME280;5382;42.136;24.796;2022-12-07T05:52:05;100034.09;;;5.73;100.00
10668;BME280;5382;42.136;24.796;2022-12-07T05:54:32;100032.84;;;5.80;100.00
10668;BME280;5382;42.136;24.796;2022-12-07T05:56:59;100050.97;;;5.67;100.00
10668;BME280;5382;42.136;24.796;2022-12-07T05:59:26;100033.69;;;5.63;100.00
10668;BME280;5382;42.136;24.796;2022-12-07T06:01:55;100036.56;;;5.76;100.00
10668;BME280;5382;42.136;24.796;2022-12-07T06:04:24;100045.06;;;5.81;100.00
10668;BME280;5382;42.136;24.796;2022-12-07T06:06:51;100043.59;;;5.76;100.00
10668;BME280;5382;42.136;24.796;2022-12-07T06:09:19;100042.25;;;5.84;100.00
10668;BME280;5382;42.136;24.796;2022-12-07T06:11:46;100042.78;;;5.91;100.00
10668;BME280;5382;42.136;24.796;2022-12-07T06:14:31;100044.31;;;5.97;100.00
10668;BME280;5382;42.136;24.796;2022-12-07T06:16:59;100051.66;;;5.88;100.00
10668;BME280;5382;42.136;24.796;2022-12-07T06:19:26;100047.56;;;6.02;100.00
10668;BME280;5382;42.136;24.796;2022-12-07T06:21:54;100053.28;;;6.10;100.00
10668;BME280;5382;42.136;24.796;2022-12-07T06:24:21;100049.84;;;6.25;100.00
10668;BME280;5382;42.136;24.796;2022-12-07T06:26:48;100046.06;;;6.31;100.00
10668;BME280;5382;42.136;24.796;2022-12-07T06:29:16;100046.00;;;6.32;100.00
10668;BME280;5382;42.136;24.796;2022-12-07T06:31:43;100047.06;;;6.28;100.00
10668;BME280;5382;42.136;24.796;2022-12-07T06:34:14;100055.91;;;6.27;100.00
10668;BME280;5382;42.136;24.796;2022-12-07T06:36:41;100048.97;;;6.42;100.00
10668;BME280;5382;42.136;24.796;2022-12-07T06:39:08;100055.84;;;6.45;100.00
10668;BME280;5382;42.136;24.796;2022-12-07T06:41:35;100065.28;;;6.49;100.00
10668;BME280;5382;42.136;24.796;2022-12-07T06:44:03;100062.31;;;6.55;100.00
10668;BME280;5382;42.136;24.796;2022-12-07T06:46:30;100065.72;;;6.57;100.00
10668;BME280;5382;42.136;24.796;2022-12-07T06:48:57;100059.91;;;6.50;100.00
10668;BME280;5382;42.136;24.796;2022-12-07T06:51:25;100065.28;;;6.49;100.00
10668;BME280;5382;42.136;24.796;2022-12-07T06:53:52;100068.78;;;6.65;100.00
10668;BME280;5382;42.136;24.796;2022-12-07T06:56:19;100066.00;;;6.68;100.00
10668;BME280;5382;42.136;24.796;2022-12-07T06:58:46;100062.53;;;6.68;100.00
10668;BME280;5382;42.136;24.796;2022-12-07T07:01:14;100062.44;;;6.69;100.00
10668;BME280;5382;42.136;24.796;2022-12-07T07:03:42;100067.88;;;6.66;100.00
10668;BME280;5382;42.136;24.796;2022-12-07T07:06:09;100061.47;;;6.88;100.00
10668;BME280;5382;42.136;24.796;2022-12-07T07:08:38;100054.16;;;6.93;100.00
10668;BME280;5382;42.136;24.796;2022-12-07T07:11:07;100049.75;;;6.93;100.00
10668;BME280;5382;42.136;24.796;2022-12-07T07:13:34;100043.81;;;7.06;100.00
10668;BME280;5382;42.136;24.796;2022-12-07T07:16:01;100029.84;;;7.05;100.00
10668;BME280;5382;42.136;24.796;2022-12-07T07:18:28;100042.63;;;7.11;100.00
10668;BME280;5382;42.136;24.796;2022-12-07T07:20:55;100059.97;;;7.31;100.00
10668;BME280;5382;42.136;24.796;2022-12-07T07:23:23;100056.19;;;7.35;100.00
10668;BME280;5382;42.136;24.796;2022-12-07T07:25:51;100060.72;;;7.49;100.00
10668;BME280;5382;42.136;24.796;2022-12-07T07:28:18;100053.41;;;7.54;100.00
10668;BME280;5382;42.136;24.796;2022-12-07T07:30:45;100067.03;;;7.61;100.00
10668;BME280;5382;42.136;24.796;2022-12-07T07:33:12;100054.47;;;7.66;100.00
10668;BME280;5382;42.136;24.796;2022-12-07T07:35:39;100030.53;;;7.55;100.00
10668;BME280;5382;42.136;24.796;2022-12-07T07:38:06;100053.44;;;7.69;100.00
10668;BME280;5382;42.136;24.796;2022-12-07T07:40:34;100056.03;;;7.84;100.00
10668;BME280;5382;42.136;24.796;2022-12-07T07:43:02;100064.25;;;7.94;100.00
10668;BME280;5382;42.136;24.796;2022-12-07T07:45:29;100066.94;;;8.08;100.00
10668;BME280;5382;42.136;24.796;2022-12-07T07:47:56;100077.78;;;8.18;100.00
10668;BME280;5382;42.136;24.796;2022-12-07T07:50:22;100069.06;;;8.32;100.00
10668;BME280;5382;42.136;24.796;2022-12-07T07:52:51;100077.41;;;8.40;100.00
10668;BME280;5382;42.136;24.796;2022-12-07T07:55:18;100074.22;;;8.49;100.00
10668;BME280;5382;42.136;24.796;2022-12-07T07:57:44;100079.19;;;8.54;100.00
10668;BME280;5382;42.136;24.796;2022-12-07T08:00:14;100071.13;;;8.57;100.00
10668;BME280;5382;42.136;24.796;2022-12-07T08:02:41;100077.22;;;8.58;100.00
10668;BME280;5382;42.136;24.796;2022-12-07T08:05:09;100077.59;;;8.66;100.00
10668;BME280;5382;42.136;24.796;2022-12-07T08:07:36;100078.09;;;8.72;100.00
10668;BME280;5382;42.136;24.796;2022-12-07T08:10:04;100075.44;;;8.87;100.00
10668;BME280;5382;42.136;24.796;2022-12-07T08:12:31;100048.97;;;8.74;100.00
10668;BME280;5382;42.136;24.796;2022-12-07T08:15:01;100076.47;;;8.84;100.00
10668;BME280;5382;42.136;24.796;2022-12-07T08:17:29;100073.28;;;8.79;100.00
10668;BME280;5382;42.136;24.796;2022-12-07T08:19:56;100072.97;;;8.98;100.00
10668;BME280;5382;42.136;24.796;2022-12-07T08:22:23;100073.81;;;9.13;100.00
10668;BME280;5382;42.136;24.796;2022-12-07T08:24:50;100074.38;;;9.18;100.00
10668;BME280;5382;42.136;24.796;2022-12-07T08:27:17;100071.78;;;9.31;100.00
10668;BME280;5382;42.136;24.796;2022-12-07T08:29:43;100067.84;;;9.24;100.00
10668;BME280;5382;42.136;24.796;2022-12-07T08:32:11;100064.47;;;9.22;100.00
10668;BME280;5382;42.136;24.796;2022-12-07T08:34:40;100070.00;;;9.31;100.00
10668;BME280;5382;42.136;24.796;2022-12-07T08:37:06;100076.19;;;9.45;100.00
10668;BME280;5382;42.136;24.796;2022-12-07T08:39:33;100059.19;;;9.49;100.00
10668;BME280;5382;42.136;24.796;2022-12-07T08:42:00;100068.47;;;9.69;100.00
10668;BME280;5382;42.136;24.796;2022-12-07T08:44:27;100067.97;;;9.76;100.00
10668;BME280;5382;42.136;24.796;2022-12-07T08:46:56;100049.72;;;9.86;100.00
10668;BME280;5382;42.136;24.796;2022-12-07T08:49:27;100057.78;;;9.97;100.00
10668;BME280;5382;42.136;24.796;2022-12-07T08:51:58;100054.84;;;10.15;100.00
10668;BME280;5382;42.136;24.796;2022-12-07T08:54:25;100047.69;;;10.30;100.00
10668;BME280;5382;42.136;24.796;2022-12-07T08:56:54;100028.41;;;10.15;100.00
10668;BME280;5382;42.136;24.796;2022-12-07T08:59:21;100029.59;;;10.36;100.00
10668;BME280;5382;42.136;24.796;2022-12-07T09:01:49;100041.09;;;10.22;100.00
10668;BME280;5382;42.136;24.796;2022-12-07T09:04:16;100036.66;;;10.23;100.00
10668;BME280;5382;42.136;24.796;2022-12-07T09:06:43;100038.16;;;10.40;100.00
10668;BME280;5382;42.136;24.796;2022-12-07T09:09:12;100029.69;;;10.60;100.00
10668;BME280;5382;42.136;24.796;2022-12-07T09:11:40;100021.72;;;10.86;100.00
10668;BME280;5382;42.136;24.796;2022-12-07T09:14:07;100020.31;;;10.93;100.00
10668;BME280;5382;42.136;24.796;2022-12-07T09:16:34;100003.66;;;11.04;100.00
10668;BME280;5382;42.136;24.796;2022-12-07T09:19:01;100005.03;;;11.09;100.00
10668;BME280;5382;42.136;24.796;2022-12-07T09:21:28;100014.28;;;11.28;100.00
10668;BME280;5382;42.136;24.796;2022-12-07T09:23:55;100005.53;;;11.14;100.00
10668;BME280;5382;42.136;24.796;2022-12-07T09:26:23;99998.78;;;11.10;100.00
10668;BME280;5382;42.136;24.796;2022-12-07T09:28:50;99996.97;;;11.11;100.00
10668;BME280;5382;42.136;24.796;2022-12-07T09:31:17;99990.44;;;11.04;100.00
10668;BME280;5382;42.136;24.796;2022-12-07T09:33:43;99989.69;;;11.02;100.00
10668;BME280;5382;42.136;24.796;2022-12-07T09:36:10;99985.09;;;11.17;100.00
10668;BME280;5382;42.136;24.796;2022-12-07T09:38:37;99981.56;;;11.29;100.00
10668;BME280;5382;42.136;24.796;2022-12-07T09:41:05;99981.09;;;11.59;100.00
10668;BME280;5382;42.136;24.796;2022-12-07T09:43:35;99980.00;;;11.62;100.00
10668;BME280;5382;42.136;24.796;2022-12-07T09:46:05;99975.34;;;11.76;100.00
10668;BME280;5382;42.136;24.796;2022-12-07T09:48:34;99966.25;;;11.92;100.00
10668;BME280;5382;42.136;24.796;2022-12-07T09:51:09;99965.00;;;11.85;100.00
10668;BME280;5382;42.136;24.796;2022-12-07T09:53:40;99939.19;;;11.75;100.00
10668;BME280;5382;42.136;24.796;2022-12-07T09:56:09;99957.69;;;11.88;100.00
10668;BME280;5382;42.136;24.796;2022-12-07T09:58:40;99960.22;;;11.90;100.00
10668;BME280;5382;42.136;24.796;2022-12-07T10:01:12;99967.09;;;11.92;100.00
10668;BME280;5382;42.136;24.796;2022-12-07T10:03:40;99930.69;;;11.94;100.00
10668;BME280;5382;42.136;24.796;2022-12-07T10:06:11;99954.38;;;12.20;100.00
10668;BME280;5382;42.136;24.796;2022-12-07T10:08:40;99962.59;;;12.39;100.00
10668;BME280;5382;42.136;24.796;2022-12-07T10:11:09;99955.81;;;12.35;100.00
10668;BME280;5382;42.136;24.796;2022-12-07T10:13:37;99949.06;;;12.42;100.00
10668;BME280;5382;42.136;24.796;2022-12-07T10:16:32;99951.00;;;12.52;100.00
10668;BME280;5382;42.136;24.796;2022-12-07T10:18:54;99948.84;;;12.46;100.00
10668;BME280;5382;42.136;24.796;2022-12-07T10:21:22;99941.25;;;12.52;100.00
10668;BME280;5382;42.136;24.796;2022-12-07T10:24:00;99948.59;;;12.60;100.00
10668;BME280;5382;42.136;24.796;2022-12-07T10:26:31;99936.28;;;12.70;100.00
10668;BME280;5382;42.136;24.796;2022-12-07T10:29:00;99925.00;;;12.89;100.00
10668;BME280;5382;42.136;24.796;2022-12-07T10:31:29;99914.22;;;13.02;100.00
10668;BME280;5382;42.136;24.796;2022-12-07T10:33:58;99921.41;;;13.22;100.00
10668;BME280;5382;42.136;24.796;2022-12-07T10:36:29;99922.34;;;13.21;100.00
10668;BME280;5382;42.136;24.796;2022-12-07T10:39:03;99901.09;;;13.21;100.00
10668;BME280;5382;42.136;24.796;2022-12-07T10:41:30;99908.91;;;13.45;100.00
10668;BME280;5382;42.136;24.796;2022-12-07T10:43:57;99902.38;;;14.01;100.00
10668;BME280;5382;42.136;24.796;2022-12-07T10:46:45;99919.66;;;14.47;100.00
10668;BME280;5382;42.136;24.796;2022-12-07T10:49:42;99923.47;;;14.95;100.00
10668;BME280;5382;42.136;24.796;2022-12-07T10:52:36;99930.22;;;15.38;100.00
10668;BME280;5382;42.136;24.796;2022-12-07T10:55:14;99927.47;;;16.16;100.00
10668;BME280;5382;42.136;24.796;2022-12-07T10:57:51;99920.47;;;16.05;100.00
10668;BME280;5382;42.136;24.796;2022-12-07T11:00:23;99918.34;;;17.01;100.00
10668;BME280;5382;42.136;24.796;2022-12-07T11:03:02;99916.63;;;18.16;100.00
10668;BME280;5382;42.136;24.796;2022-12-07T11:05:39;99898.16;;;17.60;100.00
10668;BME280;5382;42.136;24.796;2022-12-07T11:08:17;99896.69;;;17.84;100.00
10668;BME280;5382;42.136;24.796;2022-12-07T11:10:52;99891.50;;;18.17;100.00
10668;BME280;5382;42.136;24.796;2022-12-07T11:13:29;99880.22;;;18.82;100.00
10668;BME280;5382;42.136;24.796;2022-12-07T11:16:23;99870.72;;;19.94;93.18
10668;BME280;5382;42.136;24.796;2022-12-07T11:19:41;99862.44;;;20.51;86.18
10668;BME280;5382;42.136;24.796;2022-12-07T11:22:19;99857.94;;;21.29;77.54
10668;BME280;5382;42.136;24.796;2022-12-07T11:24:56;99853.59;;;21.05;74.83
10668;BME280;5382;42.136;24.796;2022-12-07T11:27:31;99850.16;;;21.11;70.45
10668;BME280;5382;42.136;24.796;2022-12-07T11:30:08;99847.16;;;21.06;68.41
10668;BME280;5382;42.136;24.796;2022-12-07T11:32:53;99841.28;;;20.17;72.06
10668;BME280;5382;42.136;24.796;2022-12-07T11:35:32;99845.59;;;19.70;73.63
10668;BME280;5382;42.136;24.796;2022-12-07T11:38:08;99843.31;;;18.17;81.18
10668;BME280;5382;42.136;24.796;2022-12-07T11:40:36;99836.69;;;17.95;81.61
10668;BME280;5382;42.136;24.796;2022-12-07T11:43:10;99841.25;;;17.76;84.02
10668;BME280;5382;42.136;24.796;2022-12-07T11:45:42;99826.63;;;17.71;85.12
10668;BME280;5382;42.136;24.796;2022-12-07T11:48:14;99831.38;;;17.07;85.66
10668;BME280;5382;42.136;24.796;2022-12-07T11:50:50;99829.56;;;16.62;87.39
10668;BME280;5382;42.136;24.796;2022-12-07T11:53:21;99825.03;;;16.17;92.84
10668;BME280;5382;42.136;24.796;2022-12-07T11:55:52;99817.38;;;15.57;97.65
10668;BME280;5382;42.136;24.796;2022-12-07T11:58:40;99820.06;;;15.57;98.15
10668;BME280;5382;42.136;24.796;2022-12-07T12:01:18;99818.22;;;15.57;99.07
10668;BME280;5382;42.136;24.796;2022-12-07T12:03:50;99815.69;;;15.56;98.80
10668;BME280;5382;42.136;24.796;2022-12-07T12:06:20;99804.78;;;15.49;97.71
10668;BME280;5382;42.136;24.796;2022-12-07T12:08:53;99812.88;;;15.67;97.05
10668;BME280;5382;42.136;24.796;2022-12-07T12:11:36;99809.09;;;15.60;98.00
10668;BME280;5382;42.136;24.796;2022-12-07T12:14:26;99807.59;;;15.38;98.58
10668;BME280;5382;42.136;24.796;2022-12-07T12:17:31;99797.88;;;14.39;100.00
10668;BME280;5382;42.136;24.796;2022-12-07T12:20:05;99787.97;;;14.01;100.00
10668;BME280;5382;42.136;24.796;2022-12-07T12:22:38;99798.34;;;14.04;100.00
10668;BME280;5382;42.136;24.796;2022-12-07T12:25:13;99795.81;;;13.41;100.00
10668;BME280;5382;42.136;24.796;2022-12-07T12:27:46;99798.69;;;13.28;100.00
10668;BME280;5382;42.136;24.796;2022-12-07T12:30:25;99802.31;;;13.27;100.00
10668;BME280;5382;42.136;24.796;2022-12-07T12:33:02;99807.50;;;13.29;100.00
10668;BME280;5382;42.136;24.796;2022-12-07T12:35:31;99797.06;;;13.37;100.00
10668;BME280;5382;42.136;24.796;2022-12-07T12:38:30;99791.06;;;13.24;100.00
10668;BME280;5382;42.136;24.796;2022-12-07T12:41:00;99779.66;;;13.12;100.00
10668;BME280;5382;42.136;24.796;2022-12-07T12:43:46;99781.59;;;13.10;100.00
10668;BME280;5382;42.136;24.796;2022-12-07T12:49:40;99781.53;;;13.00;100.00
10668;BME280;5382;42.136;24.796;2022-12-07T12:55:20;99772.94;;;13.29;100.00
10668;BME280;5382;42.136;24.796;2022-12-07T13:07:12;99769.97;;;12.69;100.00
10668;BME280;5382;42.136;24.796;2022-12-07T13:09:44;99755.47;;;12.73;100.00
10668;BME280;5382;42.136;24.796;2022-12-07T13:12:14;99686.44;;;12.52;100.00
10668;BME280;5382;42.136;24.796;2022-12-07T13:15:22;99762.63;;;13.15;100.00
10668;BME280;5382;42.136;24.796;2022-12-07T13:17:59;99769.69;;;13.04;100.00
10668;BME280;5382;42.136;24.796;2022-12-07T13:20:56;99769.34;;;12.98;100.00
10668;BME280;5382;42.136;24.796;2022-12-07T13:23:27;99761.25;;;12.78;100.00
10668;BME280;5382;42.136;24.796;2022-12-07T13:26:00;99767.41;;;12.79;100.00